createdAt,value
2023-05-24T00:02:49.893Z,7.57
2023-05-24T00:07:55.366Z,8.30
2023-05-24T00:12:59.002Z,8.27
2023-05-24T00:18:02.706Z,8.35
2023-05-24T00:23:08.102Z,8.02
2023-05-24T00:28:11.802Z,7.30
2023-05-24T00:33:15.471Z,7.90
2023-05-24T00:38:20.821Z,7.47
2023-05-24T00:43:24.805Z,7.53
2023-05-24T00:48:28.581Z,7.90
2023-05-24T00:53:36.241Z,6.93
2023-05-24T00:58:40.398Z,8.32
2023-05-24T01:03:44.292Z,7.50
2023-05-24T01:09:03.419Z,7.13
2023-05-24T01:14:19.313Z,7.38
2023-05-24T01:19:44.551Z,7.28
2023-05-24T01:25:01.671Z,6.63
2023-05-24T01:30:09.135Z,6.85
2023-05-24T01:35:12.961Z,5.95
2023-05-24T01:40:17.204Z,7.38
2023-05-24T01:45:31.254Z,8.05
2023-05-24T01:50:39.433Z,7.75
2023-05-24T01:55:44.987Z,7.30
2023-05-24T02:00:52.534Z,6.78
2023-05-24T02:05:56.226Z,7.60
2023-05-24T02:10:59.876Z,6.75
2023-05-24T02:16:05.585Z,7.43
2023-05-24T02:26:12.143Z,6.85
2023-05-24T02:31:17.478Z,7.40
2023-05-24T02:36:21.282Z,7.00
2023-05-24T02:41:24.936Z,7.22
2023-05-24T02:46:30.279Z,6.97
2023-05-24T02:51:33.943Z,7.05
2023-05-24T02:56:37.743Z,7.47
2023-05-24T03:01:43.068Z,6.43
2023-05-24T03:06:47.558Z,6.85
2023-05-24T03:11:51.220Z,7.68
2023-05-24T03:16:57.501Z,7.85
2023-05-24T03:22:01.196Z,7.32
2023-05-24T03:27:05.149Z,7.85
2023-05-24T03:32:10.500Z,7.07
2023-05-24T03:37:14.154Z,7.72
2023-05-24T03:42:17.857Z,6.80
2023-05-24T03:47:23.241Z,7.35
2023-05-24T03:52:27.072Z,7.00
2023-05-24T03:57:30.720Z,7.72
2023-05-24T04:02:36.061Z,7.78
2023-05-24T04:07:39.890Z,7.93
2023-05-24T04:12:43.567Z,7.05
2023-05-24T04:17:48.897Z,6.50
2023-05-24T04:22:52.646Z,6.88
2023-05-24T04:27:56.355Z,7.07
2023-05-24T04:33:01.814Z,6.80
2023-05-24T04:38:05.590Z,6.15
2023-05-24T04:43:09.699Z,6.30
2023-05-24T04:48:15.049Z,7.03
2023-05-24T04:53:18.752Z,6.70
2023-05-24T04:58:22.531Z,6.15
2023-05-24T05:03:27.987Z,6.82
2023-05-24T05:08:31.732Z,6.10
2023-05-24T05:13:35.378Z,6.63
2023-05-24T05:18:40.671Z,6.43
2023-05-24T05:23:44.337Z,5.73
2023-05-24T05:28:47.994Z,6.43
2023-05-24T05:33:53.732Z,6.55
2023-05-24T05:38:58.143Z,6.68
2023-05-24T05:44:01.838Z,6.05
2023-05-24T05:49:07.755Z,6.55
2023-05-24T05:59:15.223Z,6.07
2023-05-24T06:04:20.625Z,5.47
2023-05-24T06:09:24.387Z,5.90
2023-05-24T06:14:28.169Z,5.88
2023-05-24T06:19:33.479Z,6.15
2023-05-24T06:24:37.148Z,5.87
2023-05-24T06:29:40.830Z,6.10
2023-05-24T06:34:47.158Z,6.55
2023-05-24T06:39:50.812Z,6.15
2023-05-24T06:44:54.467Z,6.70
2023-05-24T06:49:59.765Z,6.22
2023-05-24T06:55:03.464Z,6.17
2023-05-24T07:00:08.615Z,6.22
2023-05-24T07:05:13.973Z,6.73
2023-05-24T07:10:17.742Z,6.47
2023-05-24T07:15:21.467Z,6.60
2023-05-24T07:20:27.017Z,6.70
2023-05-24T07:25:31.129Z,6.47
2023-05-24T07:30:34.978Z,6.88
2023-05-24T07:35:41.430Z,6.55
2023-05-24T07:41:03.750Z,6.60
2023-05-24T07:46:07.482Z,6.75
2023-05-24T07:51:11.142Z,7.13
2023-05-24T07:56:16.451Z,6.57
2023-05-24T08:01:20.139Z,5.97
2023-05-24T08:06:23.905Z,6.65
2023-05-24T08:11:29.256Z,7.00
2023-05-24T08:16:33.522Z,6.47
2023-05-24T08:21:37.210Z,6.47
2023-05-24T08:26:42.580Z,6.53
2023-05-24T08:31:46.270Z,6.67
2023-05-24T08:36:50.504Z,6.22
2023-05-24T08:42:08.526Z,6.82
2023-05-24T08:47:13.834Z,6.57
2023-05-24T08:52:18.804Z,6.65
2023-05-24T08:57:27.137Z,6.82
2023-05-24T09:02:32.416Z,6.57
2023-05-24T09:07:36.206Z,5.73
2023-05-24T09:12:45.307Z,6.88
2023-05-24T09:17:49.000Z,7.32
2023-05-24T09:22:53.482Z,5.57
2023-05-24T09:27:58.880Z,6.53
2023-05-24T09:33:02.834Z,7.10
2023-05-24T09:38:06.538Z,6.68
2023-05-24T09:43:12.297Z,6.78
2023-05-24T09:48:16.707Z,6.70
2023-05-24T09:53:23.044Z,6.60
2023-05-24T09:58:31.044Z,6.43
2023-05-24T10:03:35.533Z,6.10
2023-05-24T10:08:39.862Z,7.18
2023-05-24T10:13:45.646Z,6.10
2023-05-24T10:18:49.360Z,6.68
2023-05-24T10:23:55.789Z,6.15
2023-05-24T10:29:07.534Z,6.28
2023-05-24T10:34:11.926Z,6.55
2023-05-24T10:39:15.638Z,6.85
2023-05-24T10:44:21.625Z,7.13
2023-05-24T10:49:25.259Z,7.30
2023-05-24T10:54:28.955Z,7.28
2023-05-24T10:59:36.513Z,6.32
2023-05-24T11:04:41.299Z,6.32
2023-05-24T11:09:48.175Z,6.53
2023-05-24T11:14:54.695Z,6.43
2023-05-24T11:19:58.593Z,6.40
2023-05-24T11:25:03.036Z,7.15
2023-05-24T11:30:10.315Z,7.15
2023-05-24T11:35:14.012Z,6.68
2023-05-24T11:40:18.236Z,7.70
2023-05-24T11:45:23.724Z,6.65
2023-05-24T11:50:28.811Z,6.20
2023-05-24T11:55:33.336Z,6.60
2023-05-24T12:00:38.757Z,7.10
2023-05-24T12:05:42.443Z,6.27
2023-05-24T12:10:46.215Z,5.95
2023-05-24T12:15:55.853Z,6.38
2023-05-24T12:21:00.554Z,6.20
2023-05-24T12:26:04.313Z,6.50
2023-05-24T12:31:10.658Z,5.80
2023-05-24T12:36:14.962Z,6.28
2023-05-24T12:41:18.621Z,5.90
2023-05-24T12:46:23.932Z,6.70
2023-05-24T12:51:27.635Z,5.37
2023-05-24T12:56:31.352Z,6.20
2023-05-24T13:01:37.851Z,6.32
2023-05-24T13:06:41.663Z,6.20
2023-05-24T13:11:45.381Z,6.75
2023-05-24T13:16:51.134Z,5.90
2023-05-24T13:21:54.889Z,7.68
2023-05-24T13:26:58.792Z,8.32
2023-05-24T13:32:04.151Z,7.28
2023-05-24T13:37:07.977Z,7.17
2023-05-24T13:42:11.825Z,6.70
2023-05-24T13:47:27.297Z,6.50
2023-05-24T13:52:39.478Z,7.25
2023-05-24T13:57:51.556Z,7.55
2023-05-24T14:02:57.599Z,6.57
2023-05-24T14:08:01.343Z,7.03
2023-05-24T14:18:16.514Z,7.35
2023-05-24T14:23:20.200Z,6.40
2023-05-24T14:28:23.892Z,7.00
2023-05-24T14:33:29.210Z,6.80
2023-05-24T14:38:32.946Z,7.33
2023-05-24T14:43:36.604Z,6.43
2023-05-24T14:48:41.926Z,6.30
2023-05-24T14:53:45.631Z,5.57
2023-05-24T14:58:49.282Z,5.63
2023-05-24T15:03:54.750Z,6.55
2023-05-24T15:08:58.561Z,6.68
2023-05-24T15:14:02.241Z,6.75
2023-05-24T15:19:07.585Z,5.68
2023-05-24T15:24:11.262Z,6.30
2023-05-24T15:29:14.970Z,5.82
2023-05-24T15:34:21.498Z,6.53
2023-05-24T15:39:27.226Z,5.97
2023-05-24T15:44:30.914Z,5.65
2023-05-24T15:49:37.223Z,6.35
2023-05-24T15:54:40.885Z,5.53
2023-05-24T15:59:44.604Z,5.40
2023-05-24T16:04:51.658Z,5.57
2023-05-24T16:09:55.438Z,4.47
2023-05-24T16:15:00.378Z,5.50
2023-05-24T16:20:06.371Z,4.78
2023-05-24T16:30:13.920Z,5.63
2023-05-24T16:35:19.298Z,4.70
2023-05-24T16:40:23.175Z,4.47
2023-05-24T16:45:26.859Z,5.00
2023-05-24T16:50:32.176Z,5.15
2023-05-24T16:55:35.820Z,4.73
2023-05-24T17:00:39.477Z,4.88
2023-05-24T17:05:44.796Z,5.03
2023-05-24T17:10:48.589Z,4.90
2023-05-24T17:15:52.450Z,5.28
2023-05-24T17:20:58.697Z,5.20
2023-05-24T17:26:02.990Z,5.40
2023-05-24T17:31:09.242Z,5.13
2023-05-24T17:36:14.608Z,5.07
2023-05-24T17:41:18.320Z,5.20
2023-05-24T17:46:22.004Z,6.20
2023-05-24T17:51:27.388Z,5.55
2023-05-24T17:56:31.054Z,5.57
2023-05-24T18:01:35.197Z,5.78
2023-05-24T18:06:40.556Z,5.95
2023-05-24T18:11:44.215Z,5.57
2023-05-24T18:16:47.928Z,6.38
2023-05-24T18:21:54.102Z,5.50
2023-05-24T18:26:57.733Z,5.85
2023-05-24T18:32:01.424Z,5.30
2023-05-24T18:37:06.946Z,6.53
2023-05-24T18:42:10.592Z,5.72
2023-05-24T18:47:14.255Z,5.45
2023-05-24T18:52:20.488Z,5.80
2023-05-24T18:57:24.195Z,5.50
2023-05-24T19:02:27.984Z,4.93
2023-05-24T19:07:35.090Z,5.93
2023-05-24T19:12:38.811Z,5.53
2023-05-24T19:17:42.509Z,5.88
2023-05-24T19:22:48.006Z,5.35
2023-05-24T19:32:58.088Z,5.57
2023-05-24T19:38:03.473Z,4.93
2023-05-24T19:43:07.137Z,5.07
2023-05-24T19:48:10.761Z,4.75
2023-05-24T19:53:16.603Z,5.20
2023-05-24T19:58:20.255Z,5.30
2023-05-24T20:03:23.966Z,4.70
2023-05-24T20:08:29.390Z,4.88
2023-05-24T20:13:33.053Z,4.63
2023-05-24T20:18:36.731Z,4.72
2023-05-24T20:23:43.001Z,4.72
2023-05-24T20:28:46.648Z,4.72
2023-05-24T20:33:51.079Z,4.78
2023-05-24T20:38:56.451Z,4.38
2023-05-24T20:44:00.120Z,4.50
2023-05-24T20:49:03.783Z,4.72
2023-05-24T20:54:09.173Z,4.90
2023-05-24T20:59:12.888Z,4.97
2023-05-24T21:04:16.557Z,4.70
2023-05-24T21:09:21.887Z,4.45
2023-05-24T21:14:25.540Z,4.40
2023-05-24T21:19:29.239Z,4.50
2023-05-24T21:24:34.572Z,4.55
2023-05-24T21:29:38.247Z,4.95
2023-05-24T21:34:42.068Z,4.80
2023-05-24T21:39:48.353Z,4.78
2023-05-24T21:44:52.056Z,4.97
2023-05-24T21:49:55.745Z,4.57
2023-05-24T22:00:32.143Z,4.18
2023-05-24T22:05:35.807Z,4.55
2023-05-24T22:10:41.151Z,4.18
2023-05-24T22:15:45.094Z,4.55
2023-05-24T22:20:50.455Z,3.75
2023-05-24T22:25:55.742Z,4.10
2023-05-24T22:30:59.413Z,4.20
2023-05-24T22:36:03.032Z,3.72
2023-05-24T22:41:08.422Z,3.85
2023-05-24T22:51:15.034Z,4.10
2023-05-24T22:56:20.503Z,3.60
2023-05-24T23:06:27.245Z,3.63
2023-05-24T23:11:32.589Z,3.72
2023-05-24T23:16:36.565Z,3.60
2023-05-24T23:21:40.297Z,3.83
2023-05-24T23:26:45.614Z,3.17
2023-05-24T23:31:49.331Z,3.75
2023-05-24T23:36:53.204Z,3.80
2023-05-24T23:41:58.597Z,3.40
2023-05-24T23:47:03.547Z,3.42
2023-05-24T23:52:08.184Z,3.50
2023-05-24T23:57:13.982Z,3.58
